Lochmaben, United Kingdom
Current Conditions -  °F | °C
As of 6:50 PM on Sunday 21 Dec 2014 (Local Time) from EGOM Reporting Station
NA  
Wind Chill: 50°   Ceiling: NA
Heat Index: 50°   Visibility: 6mi
Dew Point: 50°   Wind: 31mph
Humidity: 100%   Direction: 230°SW
Pressure: 29.74"   Gusts: 43mph
Location:  55.13°N, 3.44°W
Report Text: EGOM 211850Z AUTO 23027G37KT 9999 ///////// 10/10 Q1007 RERA
Loading
Personal Weather Stations






























Interactive Weather Map New forecast layout! Learn more

10-Day Weather Forecast

Advertisements
Track Severe Weather on mobile